Saint-Sauveur, Quebec

5:18 AM EST on February 11, 2016 (GMT -0500)
Saint-Sauveur, QUEBEC, CANADA | | Change Station
CLOSE
Current Station
Personal Weather Station
Location: Saint-Sauveur, QUéBEC
Elevation: 1107 ft
Nearby Weather Stations

Elev 1107 ft 45.87 °N, 74.17 °W | Updated 9 minutes ago

Light Snow
Light Snow
6.6 °F
Feels Like 7 °F
N
0.0
Wind Variable Wind from NNE
Gusts 1.0 mph

Today is forecast to be nearly the same temperature as yesterday.

Today
High -- | Low -- °F
--% Chance of Precip.
Yesterday
High -- | Low -- °F
Precip. -- in
Pressure 29.70 in
Visibility 6.0 miles
Clouds Few 3000 ft
Mostly Cloudy 6400 ft
Overcast 9000 ft
Windchill 7 °F
Dew Point 4 °F
Humidity 87%
Rainfall 0.00 in
Snow Depth Not available.
7:05 AM 5:16 PM
Waxing Crescent, 11% visible
METAR CYMX 111000Z 26005KT 6SM -SN FEW030 BKN064 OVC090 M12/M14 A2968 RMK SC2SC4AC2 SLP058
Pressure 29.70 in
Visibility 6.0 miles
Clouds Few 3000 ft
Mostly Cloudy 6400 ft
Overcast 9000 ft
Windchill 7 °F
Dew Point 4 °F
Humidity 87%
Rainfall 0.00 in
Snow Depth Not available.
7:05 AM 5:16 PM
Waxing Crescent, 11% visible
METAR CYMX 111000Z 26005KT 6SM -SN FEW030 BKN064 OVC090 M12/M14 A2968 RMK SC2SC4AC2 SLP058

10-Day Weather Forecast

Almanac

Astronomy

Feb. 11, 2016 Rise Set
Actual Time
Civil Twilight
Nautical Twilight
Astronomical Twilight
Moon
Length of Visible Light
Length of Day
Tomorrow will be .
, % of the Moon is Illuminated

Today's Extremes

Country Highs Country Lows

Community

WunderPhotos

Upload Photos

1,892,030 photos uploaded!

WunderBlog® & News

Nearby

Air Quality

  Air Quality AQ Index Pollutant
Not available.

Snow Depth

Station Depth Elevation

Earthquake Activity

City Distance Mag. Time & Date
Minimum magnitude displayed is 2.5.

Coastal Water Temperatures

Place Temperature

Stations

Nearby Weather Stations

Station Location Temp. Windchill Dew Point Humidity Wind Precip. Elev Updated Type
                   

Watches & Warnings

There are currently no watches in effect.